Time;durP1;ratioP1;P1;durP2;ratioP2;P2;SDS_P1;SDS_P2;PMS_P1;PMS_P2;Temp;Humidity;BMP_temperature;BMP_pressure;BME280_temperature;BME280_humidity;BME280_pressure;Samples;Min_cycle;Max_cycle;Signal;HPM_P1;HPM_P2
2021/12/24 00:00:22;;;;;;;16.63;9.27;;;;;;;;;;5117134;28;21021;-72
2021/12/24 00:02:54;;;;;;;20.40;12.50;;;;;;;;;;5117321;28;20463;-73
2021/12/24 00:05:22;;;;;;;16.03;10.93;;;;;;;;;;5116869;28;20451;-72
2021/12/24 00:07:50;;;;;;;10.77;7.57;;;;;;;;;;5116901;28;20537;-72
2021/12/24 00:10:18;;;;;;;11.00;8.90;;;;;;;;;;5115966;28;20541;-72
2021/12/24 00:13:00;;;;;;;18.90;12.13;;;;;;;;;;5112115;28;20883;-73
2021/12/24 00:15:52;;;;;;;20.03;12.07;;;;;;;;;;5097511;28;20452;-72
2021/12/24 00:18:29;;;;;;;19.13;10.50;;;;;;;;;;5104638;28;20454;-72
2021/12/24 00:35:17;;;;;;;18.00;10.60;;;;;;;;;;5119808;28;20524;-73
2021/12/24 00:37:46;;;;;;;14.90;9.10;;;;;;;;;;5120570;28;20509;-73
2021/12/24 00:40:18;;;;;;;16.97;12.30;;;;;;;;;;5120663;28;21008;-73
2021/12/24 00:42:50;;;;;;;21.47;13.03;;;;;;;;;;5119794;28;20460;-72
2021/12/24 00:45:20;;;;;;;18.03;13.83;;;;;;;;;;5119811;28;20478;-73
2021/12/24 00:47:51;;;;;;;8.73;6.63;;;;;;;;;;5119197;28;20551;-72
2021/12/24 00:50:22;;;;;;;15.67;12.40;;;;;;;;;;5119355;27;20454;-74
2021/12/24 00:52:53;;;;;;;10.87;7.57;;;;;;;;;;5119863;28;20549;-73
2021/12/24 00:55:21;;;;;;;14.87;9.20;;;;;;;;;;5120091;27;20454;-73
2021/12/24 00:57:49;;;;;;;14.50;9.30;;;;;;;;;;5120363;28;20446;-72
2021/12/24 01:00:20;;;;;;;10.20;6.73;;;;;;;;;;5119292;28;20446;-72
2021/12/24 01:02:54;;;;;;;13.50;9.00;;;;;;;;;;5119682;28;20458;-73
2021/12/24 01:05:22;;;;;;;13.03;8.20;;;;;;;;;;5119343;28;20450;-72
2021/12/24 01:07:50;;;;;;;9.80;6.63;;;;;;;;;;5118745;28;20573;-73
2021/12/24 01:10:21;;;;;;;9.13;6.17;;;;;;;;;;5119545;28;20462;-73
2021/12/24 01:12:49;;;;;;;8.60;5.20;;;;;;;;;;5119199;28;20560;-73
2021/12/24 01:15:17;;;;;;;10.77;6.73;;;;;;;;;;5119282;28;20461;-72
2021/12/24 01:17:50;;;;;;;10.43;6.70;;;;;;;;;;5119168;28;20458;-72
2021/12/24 01:20:24;;;;;;;11.97;7.50;;;;;;;;;;5119539;28;20445;-73
2021/12/24 01:25:44;;;;;;;9.93;6.03;;;;;;;;;;5119645;28;20547;-73
2021/12/24 01:28:39;;;;;;;13.13;7.33;;;;;;;;;;5118792;27;20459;-73
2021/12/24 01:39:38;;;;;;;7.90;6.63;;;;;;;;;;5118890;28;20425;-73
2021/12/24 01:44:55;;;;;;;8.17;5.63;;;;;;;;;;5118624;28;20838;-71
2021/12/24 01:47:22;;;;;;;9.70;6.23;;;;;;;;;;5118181;28;20512;-74
2021/12/24 01:49:50;;;;;;;8.10;5.97;;;;;;;;;;5119259;28;20450;-73
2021/12/24 01:52:19;;;;;;;8.00;5.77;;;;;;;;;;5118520;27;20450;-74
2021/12/24 01:54:48;;;;;;;8.83;6.60;;;;;;;;;;5118207;28;20472;-74
2021/12/24 01:57:16;;;;;;;9.80;6.83;;;;;;;;;;5118932;28;20483;-72
2021/12/24 01:59:44;;;;;;;8.10;6.20;;;;;;;;;;5118851;28;20466;-74
2021/12/24 02:02:12;;;;;;;9.50;6.63;;;;;;;;;;5118542;28;20473;-74
2021/12/24 02:04:41;;;;;;;8.50;6.40;;;;;;;;;;5118617;28;20747;-73
2021/12/24 02:07:09;;;;;;;9.50;6.93;;;;;;;;;;5118416;28;20551;-73
2021/12/24 02:09:38;;;;;;;10.33;6.77;;;;;;;;;;5118357;28;20553;-73
2021/12/24 02:12:07;;;;;;;8.87;6.13;;;;;;;;;;5118548;28;20923;-73
2021/12/24 02:14:39;;;;;;;6.33;4.67;;;;;;;;;;5118668;28;20455;-73
2021/12/24 02:17:29;;;;;;;6.80;6.10;;;;;;;;;;5118149;28;20470;-73
2021/12/24 02:28:30;;;;;;;7.00;6.30;;;;;;;;;;5118152;28;20963;-73
2021/12/24 02:30:58;;;;;;;7.67;5.93;;;;;;;;;;5111491;28;20488;-74
2021/12/24 02:33:27;;;;;;;6.60;5.90;;;;;;;;;;5096930;28;20547;-73
2021/12/24 02:35:56;;;;;;;9.43;8.30;;;;;;;;;;5097824;28;20920;-73
2021/12/24 02:38:24;;;;;;;9.60;6.53;;;;;;;;;;5097346;28;20794;-73
2021/12/24 02:40:53;;;;;;;6.90;6.00;;;;;;;;;;5097340;28;20455;-73
2021/12/24 02:43:23;;;;;;;8.77;6.60;;;;;;;;;;5097622;28;20496;-73
2021/12/24 02:45:53;;;;;;;6.10;5.23;;;;;;;;;;5097378;28;20462;-73
2021/12/24 02:53:57;;;;;;;10.10;6.97;;;;;;;;;;5096039;28;20422;-73
2021/12/24 02:56:27;;;;;;;6.67;4.90;;;;;;;;;;5097558;28;20451;-73
2021/12/24 02:58:56;;;;;;;6.30;4.43;;;;;;;;;;5097748;28;20479;-72
2021/12/24 03:01:25;;;;;;;8.03;4.90;;;;;;;;;;5098244;28;20454;-73
2021/12/24 03:03:53;;;;;;;5.23;3.83;;;;;;;;;;5097599;28;20448;-73
2021/12/24 03:06:25;;;;;;;5.03;4.53;;;;;;;;;;5097274;28;20590;-73
2021/12/24 03:08:52;;;;;;;7.43;5.10;;;;;;;;;;5097267;28;20451;-73
2021/12/24 03:11:20;;;;;;;2.70;2.20;;;;;;;;;;5097398;28;20797;-73
2021/12/24 03:13:48;;;;;;;8.23;5.47;;;;;;;;;;5096814;28;20538;-73
2021/12/24 03:16:17;;;;;;;3.97;3.30;;;;;;;;;;5097400;28;20463;-73
2021/12/24 03:18:46;;;;;;;6.60;4.63;;;;;;;;;;5097280;28;20470;-72
2021/12/24 03:21:19;;;;;;;6.50;4.70;;;;;;;;;;5096713;28;20459;-72
2021/12/24 03:26:32;;;;;;;4.33;3.47;;;;;;;;;;5107998;28;20643;-74
2021/12/24 03:29:02;;;;;;;5.20;4.70;;;;;;;;;;5116923;28;20796;-73
2021/12/24 03:31:30;;;;;;;5.30;3.93;;;;;;;;;;5117402;28;20792;-74
2021/12/24 03:33:59;;;;;;;5.90;4.70;;;;;;;;;;5116931;28;20475;-73
2021/12/24 03:36:27;;;;;;;6.37;3.10;;;;;;;;;;5116371;28;20454;-74
2021/12/24 03:38:57;;;;;;;4.90;4.27;;;;;;;;;;5116894;28;20444;-73
2021/12/24 03:41:27;;;;;;;5.30;3.87;;;;;;;;;;5117152;28;20450;-73
2021/12/24 03:43:55;;;;;;;5.40;4.43;;;;;;;;;;5116810;28;20516;-73
2021/12/24 03:46:32;;;;;;;5.40;4.10;;;;;;;;;;5116857;28;20482;-74
2021/12/24 03:49:04;;;;;;;6.37;4.07;;;;;;;;;;5116644;28;20515;-74
2021/12/24 03:51:43;;;;;;;6.20;4.80;;;;;;;;;;5117071;28;20462;-73
2021/12/24 03:56:56;;;;;;;5.40;3.60;;;;;;;;;;5116522;28;20564;-73
2021/12/24 03:59:27;;;;;;;6.00;5.03;;;;;;;;;;5116628;28;20465;-73
2021/12/24 04:01:55;;;;;;;7.03;4.37;;;;;;;;;;5117010;28;20546;-73
2021/12/24 04:04:22;;;;;;;4.47;3.60;;;;;;;;;;5117111;28;20542;-74
2021/12/24 04:06:50;;;;;;;6.40;4.00;;;;;;;;;;5120648;28;20482;-72
2021/12/24 04:09:21;;;;;;;4.70;4.07;;;;;;;;;;5120653;28;20504;-73
2021/12/24 04:11:49;;;;;;;5.27;4.80;;;;;;;;;;5120556;28;20458;-73
2021/12/24 04:14:16;;;;;;;5.00;3.93;;;;;;;;;;5120799;28;20474;-73
2021/12/24 04:16:46;;;;;;;3.47;3.03;;;;;;;;;;5120373;28;20533;-74
2021/12/24 04:24:47;;;;;;;3.60;2.63;;;;;;;;;;5120115;28;20450;-73
2021/12/24 04:25:01;;;;;;;5.33;4.03;;;;;;;;;;5119754;28;20422;-73
2021/12/24 04:27:30;;;;;;;4.97;4.20;;;;;;;;;;5120090;28;20521;-73
2021/12/24 04:30:04;;;;;;;4.60;3.77;;;;;;;;;;5119433;28;20477;-73
2021/12/24 04:32:48;;;;;;;3.40;3.03;;;;;;;;;;5120286;28;20962;-72
2021/12/24 04:35:30;;;;;;;3.70;3.30;;;;;;;;;;5119751;28;20843;-74
2021/12/24 04:51:45;;;;;;;11.40;10.80;;;;;;;;;;5119099;28;20523;-73
2021/12/24 05:02:45;;;;;;;8.43;7.93;;;;;;;;;;5118792;28;20453;-73
2021/12/24 05:05:21;;;;;;;9.93;9.33;;;;;;;;;;5118898;28;20491;-73
2021/12/24 05:10:49;;;;;;;5.60;5.13;;;;;;;;;;5076765;28;20727;-73
2021/12/24 05:13:19;;;;;;;4.20;3.90;;;;;;;;;;5076453;28;20460;-73
2021/12/24 05:15:50;;;;;;;5.20;4.70;;;;;;;;;;5095577;28;20447;-73
2021/12/24 05:18:32;;;;;;;3.73;3.43;;;;;;;;;;5119924;28;20541;-73
2021/12/24 05:23:45;;;;;;;6.00;5.63;;;;;;;;;;5119505;28;20484;-73
2021/12/24 05:26:13;;;;;;;6.80;6.20;;;;;;;;;;5119576;28;20499;-74
2021/12/24 05:28:45;;;;;;;2.90;2.10;;;;;;;;;;5119687;28;20575;-74
2021/12/24 05:31:13;;;;;;;2.60;2.40;;;;;;;;;;5119255;28;20745;-73
2021/12/24 05:33:41;;;;;;;2.50;2.30;;;;;;;;;;5119747;28;20863;-73
2021/12/24 05:36:08;;;;;;;2.97;2.77;;;;;;;;;;5118436;28;20457;-73
2021/12/24 05:38:39;;;;;;;2.90;2.27;;;;;;;;;;5119532;27;20792;-73
2021/12/24 05:41:10;;;;;;;3.70;3.37;;;;;;;;;;5119226;28;20508;-73
2021/12/24 05:43:38;;;;;;;4.67;4.37;;;;;;;;;;5119142;28;20447;-73
2021/12/24 05:46:07;;;;;;;5.60;5.30;;;;;;;;;;5118964;28;20542;-73
2021/12/24 05:48:35;;;;;;;6.90;6.50;;;;;;;;;;5118963;28;20485;-73
2021/12/24 05:51:03;;;;;;;4.27;3.97;;;;;;;;;;5119110;28;20835;-73
2021/12/24 05:53:30;;;;;;;7.30;6.90;;;;;;;;;;5118625;28;20527;-73
2021/12/24 05:55:58;;;;;;;7.87;7.47;;;;;;;;;;5119238;28;20446;-73
2021/12/24 05:58:26;;;;;;;6.70;6.30;;;;;;;;;;5118876;28;20511;-73
2021/12/24 06:00:53;;;;;;;6.00;5.60;;;;;;;;;;5117589;28;20469;-73
2021/12/24 06:03:23;;;;;;;9.10;8.53;;;;;;;;;;5117144;28;20454;-73
2021/12/24 06:05:50;;;;;;;7.97;7.57;;;;;;;;;;5118023;28;20446;-74
2021/12/24 06:08:21;;;;;;;5.23;4.73;;;;;;;;;;5118376;28;20482;-74
2021/12/24 06:10:54;;;;;;;3.10;2.90;;;;;;;;;;5119187;28;20442;-74
2021/12/24 06:13:24;;;;;;;3.23;2.93;;;;;;;;;;5118193;28;20743;-73
2021/12/24 06:15:52;;;;;;;4.40;4.10;;;;;;;;;;5118345;28;20447;-73
2021/12/24 06:18:24;;;;;;;5.20;4.30;;;;;;;;;;5117659;28;20481;-73
2021/12/24 06:20:53;;;;;;;4.50;4.10;;;;;;;;;;5117742;28;20479;-73
2021/12/24 06:23:22;;;;;;;3.17;2.97;;;;;;;;;;5117254;28;20461;-74
2021/12/24 06:25:50;;;;;;;5.10;4.80;;;;;;;;;;5118367;28;21075;-73
2021/12/24 06:28:17;;;;;;;4.63;4.30;;;;;;;;;;5118025;28;20486;-73
2021/12/24 06:30:47;;;;;;;4.60;4.20;;;;;;;;;;5118125;27;20447;-73
2021/12/24 06:33:14;;;;;;;3.37;3.07;;;;;;;;;;5119036;28;20465;-75
2021/12/24 06:35:42;;;;;;;4.53;4.13;;;;;;;;;;5119408;28;20453;-73
2021/12/24 06:38:12;;;;;;;4.60;4.20;;;;;;;;;;5118214;28;20541;-73
2021/12/24 06:40:39;;;;;;;5.13;4.73;;;;;;;;;;5118521;28;20458;-73
2021/12/24 06:43:07;;;;;;;3.80;3.40;;;;;;;;;;5118078;28;20463;-73
2021/12/24 06:45:35;;;;;;;2.73;2.30;;;;;;;;;;5119065;28;20457;-74
2021/12/24 06:48:07;;;;;;;3.73;3.00;;;;;;;;;;5118408;28;20486;-73
2021/12/24 06:50:35;;;;;;;3.20;2.47;;;;;;;;;;5118735;28;20538;-74
2021/12/24 06:53:03;;;;;;;4.40;3.60;;;;;;;;;;5118799;28;20455;-74
2021/12/24 06:55:32;;;;;;;5.43;3.60;;;;;;;;;;5118576;28;20727;-73
2021/12/24 06:57:59;;;;;;;7.07;3.90;;;;;;;;;;5118719;28;20537;-74
2021/12/24 07:00:27;;;;;;;4.80;4.13;;;;;;;;;;5106873;28;20489;-74
2021/12/24 07:02:56;;;;;;;5.23;4.40;;;;;;;;;;5098974;28;20459;-73
2021/12/24 07:05:24;;;;;;;4.47;4.07;;;;;;;;;;5097845;28;20965;-73
2021/12/24 07:07:51;;;;;;;4.00;3.70;;;;;;;;;;5096900;28;20771;-73
2021/12/24 07:10:47;;;;;;;6.00;5.23;;;;;;;;;;5098519;28;20450;-73
2021/12/24 07:13:16;;;;;;;6.43;5.83;;;;;;;;;;5097135;28;20871;-73
2021/12/24 07:15:44;;;;;;;13.10;12.37;;;;;;;;;;5105401;28;20451;-73
2021/12/24 07:18:12;;;;;;;13.40;12.60;;;;;;;;;;5118935;28;20471;-73
2021/12/24 07:20:40;;;;;;;14.53;13.63;;;;;;;;;;5119055;28;20492;-73
2021/12/24 07:23:08;;;;;;;12.90;12.00;;;;;;;;;;5119356;28;20473;-73
2021/12/24 07:25:36;;;;;;;14.77;13.87;;;;;;;;;;5118422;28;20455;-73
2021/12/24 07:28:04;;;;;;;14.17;13.37;;;;;;;;;;5118827;28;20981;-73
2021/12/24 07:30:33;;;;;;;17.10;16.07;;;;;;;;;;5118697;28;20550;-74
2021/12/24 07:33:02;;;;;;;22.87;21.33;;;;;;;;;;5117282;28;20474;-74
2021/12/24 07:35:30;;;;;;;24.37;22.60;;;;;;;;;;5117220;28;20447;-74
2021/12/24 07:37:58;;;;;;;30.70;28.07;;;;;;;;;;5114414;28;20515;-74
2021/12/24 07:40:27;;;;;;;33.33;29.93;;;;;;;;;;5122371;28;21824;-73
2021/12/24 07:42:55;;;;;;;16.70;15.70;;;;;;;;;;5117904;28;20527;-72
2021/12/24 07:45:26;;;;;;;26.73;24.53;;;;;;;;;;5122120;28;20504;-74
2021/12/24 07:48:07;;;;;;;43.60;36.87;;;;;;;;;;5122569;28;20773;-73
2021/12/24 07:53:25;;;;;;;56.20;38.77;;;;;;;;;;5121736;28;20608;-73
2021/12/24 07:56:06;;;;;;;70.30;45.40;;;;;;;;;;5120719;28;20492;-74
2021/12/24 07:58:33;;;;;;;83.30;48.57;;;;;;;;;;5118773;28;20516;-73
2021/12/24 08:01:01;;;;;;;58.30;40.87;;;;;;;;;;5119038;28;20454;-73
2021/12/24 08:03:36;;;;;;;32.23;29.20;;;;;;;;;;5119455;28;20469;-73
2021/12/24 08:06:04;;;;;;;16.00;14.60;;;;;;;;;;5118023;28;20446;-73
2021/12/24 08:08:31;;;;;;;6.27;4.00;;;;;;;;;;5119875;28;20940;-73
2021/12/24 08:10:59;;;;;;;8.80;4.97;;;;;;;;;;5119727;28;21081;-73
2021/12/24 08:13:27;;;;;;;8.30;5.67;;;;;;;;;;5120780;27;20451;-74
2021/12/24 08:15:55;;;;;;;8.70;6.87;;;;;;;;;;5119447;28;20523;-73
2021/12/24 08:18:22;;;;;;;9.43;7.40;;;;;;;;;;5119611;28;20470;-73
2021/12/24 08:20:52;;;;;;;5.80;4.47;;;;;;;;;;5118748;28;20913;-73
2021/12/24 08:23:20;;;;;;;6.23;4.53;;;;;;;;;;5119272;28;20828;-73
2021/12/24 08:25:47;;;;;;;6.27;5.30;;;;;;;;;;5119715;28;20538;-73
2021/12/24 08:28:15;;;;;;;8.60;6.00;;;;;;;;;;5119886;28;20486;-73
2021/12/24 08:30:46;;;;;;;8.53;5.90;;;;;;;;;;5118771;28;20932;-74
2021/12/24 08:33:15;;;;;;;6.30;4.70;;;;;;;;;;5119906;28;20485;-73
2021/12/24 08:35:43;;;;;;;6.17;5.27;;;;;;;;;;5122145;28;20782;-73
2021/12/24 08:38:13;;;;;;;7.40;5.93;;;;;;;;;;5125365;27;20450;-73
2021/12/24 08:40:41;;;;;;;7.33;5.60;;;;;;;;;;5122050;27;20548;-73
2021/12/24 08:43:08;;;;;;;11.67;8.67;;;;;;;;;;5119488;28;20582;-80
2021/12/24 08:45:37;;;;;;;7.47;5.80;;;;;;;;;;5118960;28;20446;-73
2021/12/24 08:48:05;;;;;;;9.27;6.80;;;;;;;;;;5118991;27;20483;-73
2021/12/24 08:53:44;;;;;;;7.17;4.83;;;;;;;;;;5115209;28;20447;-73
2021/12/24 08:56:16;;;;;;;6.27;4.90;;;;;;;;;;5118730;28;20442;-73
2021/12/24 08:58:44;;;;;;;7.47;6.63;;;;;;;;;;5119249;28;20768;-73
2021/12/24 09:01:12;;;;;;;10.47;7.20;;;;;;;;;;5118976;28;20447;-73
2021/12/24 09:03:40;;;;;;;6.70;5.00;;;;;;;;;;5119232;28;20491;-73
2021/12/24 09:06:08;;;;;;;5.20;4.57;;;;;;;;;;5117593;28;20874;-73
2021/12/24 09:08:36;;;;;;;7.30;4.90;;;;;;;;;;5119687;28;20486;-73
2021/12/24 09:11:05;;;;;;;5.70;4.40;;;;;;;;;;5119689;28;20447;-74
2021/12/24 09:13:33;;;;;;;8.87;7.13;;;;;;;;;;5118274;28;20457;-73
2021/12/24 09:16:01;;;;;;;6.10;4.00;;;;;;;;;;5118517;27;20457;-73
2021/12/24 09:18:29;;;;;;;6.63;5.93;;;;;;;;;;5130158;27;20453;-72
2021/12/24 09:21:02;;;;;;;8.13;5.17;;;;;;;;;;5126121;27;20762;-73
2021/12/24 09:23:33;;;;;;;4.13;3.73;;;;;;;;;;5118080;27;20462;-73
2021/12/24 09:26:04;;;;;;;7.00;5.40;;;;;;;;;;5128541;27;20438;-73
2021/12/24 09:28:34;;;;;;;5.87;4.60;;;;;;;;;;5118602;27;20789;-73
2021/12/24 09:31:23;;;;;;;5.67;4.33;;;;;;;;;;5125670;27;20890;-73
2021/12/24 09:33:50;;;;;;;4.87;3.80;;;;;;;;;;5110111;27;20883;-73
2021/12/24 09:36:24;;;;;;;8.07;7.27;;;;;;;;;;5117592;28;20447;-73
2021/12/24 09:38:52;;;;;;;4.57;3.80;;;;;;;;;;5117095;27;20751;-73
2021/12/24 09:41:20;;;;;;;6.47;5.47;;;;;;;;;;5117850;28;20453;-73
2021/12/24 09:43:50;;;;;;;6.23;5.63;;;;;;;;;;5117954;28;20454;-73
2021/12/24 09:46:18;;;;;;;8.63;7.30;;;;;;;;;;5118561;28;20483;-73
2021/12/24 09:48:46;;;;;;;4.43;4.03;;;;;;;;;;5130865;27;20517;-73
2021/12/24 09:51:14;;;;;;;8.47;7.63;;;;;;;;;;5128369;27;20457;-74
2021/12/24 09:53:41;;;;;;;4.20;3.17;;;;;;;;;;5117259;28;20516;-73
2021/12/24 09:56:15;;;;;;;8.17;7.30;;;;;;;;;;5117256;28;20796;-73
2021/12/24 09:58:43;;;;;;;5.47;3.37;;;;;;;;;;5117767;27;20474;-74
2021/12/24 10:01:31;;;;;;;4.23;3.87;;;;;;;;;;5116780;28;20545;-74
2021/12/24 10:04:03;;;;;;;6.50;5.70;;;;;;;;;;5105661;28;21194;-73
2021/12/24 10:06:32;;;;;;;4.10;3.27;;;;;;;;;;5104294;28;20546;-73
2021/12/24 10:09:07;;;;;;;6.73;4.70;;;;;;;;;;5116829;28;20478;-74
2021/12/24 10:11:49;;;;;;;4.10;3.70;;;;;;;;;;5116523;28;20450;-74
2021/12/24 10:14:18;;;;;;;4.87;4.40;;;;;;;;;;5116447;28;20957;-74
2021/12/24 10:16:52;;;;;;;7.80;6.00;;;;;;;;;;5116765;28;20463;-74
2021/12/24 10:19:23;;;;;;;3.90;3.43;;;;;;;;;;5117125;28;20511;-74
2021/12/24 10:22:01;;;;;;;3.73;3.23;;;;;;;;;;5117319;28;20455;-75
2021/12/24 10:24:32;;;;;;;6.40;5.47;;;;;;;;;;5116987;28;20824;-73
2021/12/24 10:27:06;;;;;;;7.73;6.10;;;;;;;;;;5121619;27;20446;-75
2021/12/24 10:29:35;;;;;;;5.20;3.47;;;;;;;;;;5113680;28;21090;-72
2021/12/24 10:32:11;;;;;;;4.80;4.27;;;;;;;;;;5116994;28;20758;-74
2021/12/24 10:34:40;;;;;;;7.83;5.27;;;;;;;;;;5105168;28;20430;-75
2021/12/24 10:37:13;;;;;;;5.70;4.87;;;;;;;;;;5098306;28;20455;-74
2021/12/24 10:39:43;;;;;;;4.53;3.40;;;;;;;;;;5115795;28;20461;-74
2021/12/24 10:42:16;;;;;;;5.73;4.20;;;;;;;;;;5115191;28;20450;-74
2021/12/24 10:44:53;;;;;;;4.37;3.27;;;;;;;;;;5113060;28;20479;-73
2021/12/24 10:47:25;;;;;;;4.30;3.53;;;;;;;;;;5102449;28;20473;-74
2021/12/24 10:55:35;;;;;;;6.57;4.17;;;;;;;;;;5116989;27;20520;-74
2021/12/24 10:58:03;;;;;;;9.77;7.47;;;;;;;;;;5138524;27;20464;-75
2021/12/24 11:00:32;;;;;;;11.30;7.00;;;;;;;;;;5132224;27;20453;-74
2021/12/24 11:03:03;;;;;;;7.53;5.27;;;;;;;;;;5128326;27;20489;-73
2021/12/24 11:05:33;;;;;;;4.93;4.43;;;;;;;;;;5117347;27;21126;-74
2021/12/24 11:08:01;;;;;;;5.27;4.13;;;;;;;;;;5117692;27;20447;-75
2021/12/24 11:10:30;;;;;;;8.57;6.90;;;;;;;;;;5137446;27;20485;-74
2021/12/24 11:13:15;;;;;;;5.50;3.90;;;;;;;;;;5131991;27;20516;-74
2021/12/24 11:18:48;;;;;;;6.93;5.00;;;;;;;;;;5115043;27;20455;-75
2021/12/24 11:21:21;;;;;;;4.87;4.13;;;;;;;;;;5131696;27;20598;-74
2021/12/24 11:23:50;;;;;;;4.30;3.40;;;;;;;;;;5118050;27;20458;-74
2021/12/24 11:26:30;;;;;;;5.10;3.83;;;;;;;;;;5127463;27;20512;-74
2021/12/24 11:29:02;;;;;;;4.90;4.00;;;;;;;;;;5125436;27;20481;-74
2021/12/24 11:31:30;;;;;;;4.83;4.30;;;;;;;;;;5128315;28;20480;-74
2021/12/24 11:34:00;;;;;;;5.13;3.23;;;;;;;;;;5132190;27;20760;-73
2021/12/24 11:36:31;;;;;;;3.80;2.90;;;;;;;;;;5122343;27;20492;-74
2021/12/24 11:39:06;;;;;;;4.90;3.07;;;;;;;;;;5128008;27;20494;-74
2021/12/24 11:41:35;;;;;;;8.37;5.30;;;;;;;;;;5125226;27;20506;-74
2021/12/24 11:44:09;;;;;;;4.50;3.73;;;;;;;;;;5137016;27;20457;-74
2021/12/24 11:46:41;;;;;;;6.60;4.17;;;;;;;;;;5134443;27;20457;-74
2021/12/24 11:49:20;;;;;;;5.23;4.10;;;;;;;;;;5122736;27;20924;-74
2021/12/24 11:51:50;;;;;;;5.93;4.37;;;;;;;;;;5128128;27;20460;-73
2021/12/24 11:54:18;;;;;;;5.17;4.50;;;;;;;;;;5135274;27;20472;-74
2021/12/24 11:56:47;;;;;;;5.23;4.63;;;;;;;;;;5151267;27;20440;-74
2021/12/24 11:59:16;;;;;;;5.73;4.17;;;;;;;;;;5145550;27;20476;-74
2021/12/24 12:01:47;;;;;;;4.93;4.47;;;;;;;;;;5121217;27;20545;-74
2021/12/24 12:04:18;;;;;;;7.10;6.00;;;;;;;;;;5117314;27;20480;-74
2021/12/24 12:06:46;;;;;;;5.43;4.57;;;;;;;;;;5133825;27;20465;-74
2021/12/24 12:09:14;;;;;;;5.20;4.60;;;;;;;;;;5135019;27;20466;-74
2021/12/24 12:11:45;;;;;;;6.90;4.30;;;;;;;;;;5133523;27;20457;-74
2021/12/24 12:14:25;;;;;;;9.17;6.50;;;;;;;;;;5137104;27;20749;-74
2021/12/24 12:16:55;;;;;;;5.63;4.97;;;;;;;;;;5142923;27;20479;-74
2021/12/24 12:19:31;;;;;;;8.40;5.47;;;;;;;;;;5136815;27;20450;-73
2021/12/24 12:22:14;;;;;;;5.67;4.60;;;;;;;;;;5136260;27;20542;-73
2021/12/24 12:27:32;;;;;;;5.00;4.60;;;;;;;;;;5140062;27;20769;-73
2021/12/24 12:30:23;;;;;;;6.23;5.10;;;;;;;;;;5139806;27;20826;-74
2021/12/24 12:33:11;;;;;;;7.17;5.33;;;;;;;;;;5140983;27;20454;-74
2021/12/24 12:35:51;;;;;;;8.40;5.30;;;;;;;;;;5139824;27;20441;-74
2021/12/24 12:38:26;;;;;;;10.50;7.40;;;;;;;;;;5140749;27;20446;-74
2021/12/24 12:40:55;;;;;;;6.80;5.93;;;;;;;;;;5140423;27;20498;-74
2021/12/24 12:43:25;;;;;;;6.40;5.47;;;;;;;;;;5136551;27;20489;-74
2021/12/24 12:46:01;;;;;;;5.60;4.80;;;;;;;;;;5134422;27;20466;-72
2021/12/24 12:48:50;;;;;;;4.60;3.20;;;;;;;;;;5135052;27;20448;-74
2021/12/24 12:51:44;;;;;;;5.37;4.70;;;;;;;;;;5130115;27;20525;-72
2021/12/24 12:54:30;;;;;;;5.50;4.33;;;;;;;;;;5136958;27;20522;-73
2021/12/24 12:57:16;;;;;;;4.10;3.23;;;;;;;;;;5135499;27;20449;-74
2021/12/24 13:00:04;;;;;;;5.80;4.20;;;;;;;;;;5135564;27;20454;-74
2021/12/24 13:02:47;;;;;;;4.60;3.93;;;;;;;;;;5141507;27;20445;-73
2021/12/24 13:05:18;;;;;;;2.30;2.10;;;;;;;;;;5144578;27;20450;-73
2021/12/24 13:07:50;;;;;;;4.87;3.90;;;;;;;;;;5131974;27;20516;-73
2021/12/24 13:10:20;;;;;;;3.60;3.20;;;;;;;;;;5121975;27;20517;-74
2021/12/24 13:12:51;;;;;;;5.43;3.57;;;;;;;;;;5127086;27;20451;-73
2021/12/24 13:15:20;;;;;;;4.20;3.23;;;;;;;;;;5120243;27;20463;-73
2021/12/24 13:17:51;;;;;;;4.97;4.47;;;;;;;;;;5121769;27;20509;-73
2021/12/24 13:20:32;;;;;;;5.87;5.00;;;;;;;;;;5137501;27;20450;-73
2021/12/24 13:23:18;;;;;;;6.53;4.93;;;;;;;;;;5141181;27;20549;-72
2021/12/24 13:25:49;;;;;;;4.23;3.73;;;;;;;;;;5119314;27;20459;-74
2021/12/24 13:28:17;;;;;;;4.40;3.50;;;;;;;;;;5118822;27;20459;-74
2021/12/24 13:30:50;;;;;;;5.90;5.30;;;;;;;;;;5120209;27;20486;-74
2021/12/24 13:33:23;;;;;;;4.37;3.97;;;;;;;;;;5134330;27;20757;-73
2021/12/24 13:35:51;;;;;;;6.33;4.10;;;;;;;;;;5139031;27;20552;-74
2021/12/24 13:38:29;;;;;;;7.07;5.47;;;;;;;;;;5138459;27;20479;-74
2021/12/24 13:40:57;;;;;;;8.03;5.47;;;;;;;;;;5139005;27;20522;-73
2021/12/24 13:43:24;;;;;;;5.60;3.63;;;;;;;;;;5139303;27;20456;-74
2021/12/24 13:45:54;;;;;;;7.00;5.37;;;;;;;;;;5128498;27;20459;-74
2021/12/24 13:48:26;;;;;;;6.90;4.13;;;;;;;;;;5122669;27;20532;-74
2021/12/24 13:56:38;;;;;;;7.97;5.67;;;;;;;;;;5138238;27;20880;-74
2021/12/24 13:59:07;;;;;;;5.03;3.90;;;;;;;;;;5149063;27;20767;-74
2021/12/24 14:01:35;;;;;;;7.33;4.47;;;;;;;;;;5138657;27;20515;-74
2021/12/24 14:04:04;;;;;;;8.57;5.60;;;;;;;;;;5139486;27;20446;-73
2021/12/24 14:06:33;;;;;;;6.30;4.63;;;;;;;;;;5139096;27;20456;-73
2021/12/24 14:09:10;;;;;;;10.27;5.40;;;;;;;;;;5139377;27;20514;-74
2021/12/24 14:11:41;;;;;;;9.17;6.53;;;;;;;;;;5138373;27;20495;-73
2021/12/24 14:14:22;;;;;;;7.70;6.20;;;;;;;;;;5138687;27;20891;-75
2021/12/24 14:17:03;;;;;;;10.60;7.37;;;;;;;;;;5145119;27;20459;-74
2021/12/24 14:19:34;;;;;;;15.30;8.73;;;;;;;;;;5145937;27;20446;-74
2021/12/24 14:22:29;;;;;;;8.93;6.90;;;;;;;;;;5138590;27;20468;-74
2021/12/24 14:25:07;;;;;;;14.43;8.17;;;;;;;;;;5134600;27;20873;-74
2021/12/24 14:27:47;;;;;;;13.40;8.03;;;;;;;;;;5137869;27;20594;-74
2021/12/24 14:30:18;;;;;;;11.80;7.63;;;;;;;;;;5137846;27;21011;-74
2021/12/24 14:32:48;;;;;;;10.13;7.70;;;;;;;;;;5138831;27;20526;-75
2021/12/24 14:35:19;;;;;;;13.70;8.93;;;;;;;;;;5138820;27;20866;-74
2021/12/24 14:37:55;;;;;;;13.60;8.80;;;;;;;;;;5138712;27;20449;-75
2021/12/24 14:40:26;;;;;;;12.03;8.10;;;;;;;;;;5138613;27;20449;-74
2021/12/24 14:42:59;;;;;;;11.93;8.07;;;;;;;;;;5138826;27;20465;-74
2021/12/24 14:45:28;;;;;;;14.60;9.63;;;;;;;;;;5138146;27;20510;-74
2021/12/24 14:48:04;;;;;;;15.10;7.90;;;;;;;;;;5135406;27;20548;-74
2021/12/24 14:50:36;;;;;;;13.03;8.23;;;;;;;;;;5138573;27;20493;-74
2021/12/24 14:53:09;;;;;;;12.07;8.57;;;;;;;;;;5134809;27;20469;-73
2021/12/24 14:55:42;;;;;;;9.60;7.17;;;;;;;;;;5139106;27;20453;-75
2021/12/24 14:58:10;;;;;;;11.40;7.80;;;;;;;;;;5134445;27;20459;-75
2021/12/24 15:00:38;;;;;;;22.30;10.00;;;;;;;;;;5125579;27;20496;-75
2021/12/24 15:03:08;;;;;;;11.47;7.33;;;;;;;;;;5137816;27;20515;-75
2021/12/24 15:05:37;;;;;;;13.57;7.83;;;;;;;;;;5119714;27;21115;-75
2021/12/24 15:08:16;;;;;;;16.33;9.17;;;;;;;;;;5133082;27;20924;-74
2021/12/24 15:10:59;;;;;;;12.80;9.37;;;;;;;;;;5137456;27;20481;-75
2021/12/24 15:13:28;;;;;;;10.93;7.73;;;;;;;;;;5136689;27;20450;-74
2021/12/24 15:15:57;;;;;;;13.80;9.60;;;;;;;;;;5135927;27;20506;-74
2021/12/24 15:18:26;;;;;;;19.40;11.40;;;;;;;;;;5131154;27;20833;-74
2021/12/24 15:21:10;;;;;;;16.33;10.20;;;;;;;;;;5136965;27;20861;-74
2021/12/24 15:23:41;;;;;;;15.00;8.17;;;;;;;;;;5128497;27;20450;-75
2021/12/24 15:26:19;;;;;;;19.03;9.70;;;;;;;;;;5137569;27;20469;-74
2021/12/24 15:28:56;;;;;;;16.53;10.47;;;;;;;;;;5121914;27;20557;-74
2021/12/24 15:31:25;;;;;;;21.60;11.27;;;;;;;;;;5118199;27;20478;-75
2021/12/24 15:34:00;;;;;;;20.70;9.77;;;;;;;;;;5119842;27;20901;-72
2021/12/24 15:36:49;;;;;;;22.90;12.00;;;;;;;;;;5138581;27;20465;-74
2021/12/24 15:39:43;;;;;;;15.27;9.27;;;;;;;;;;5132297;27;20511;-74
2021/12/24 15:42:30;;;;;;;15.47;8.17;;;;;;;;;;5136938;28;20446;-74
2021/12/24 15:45:03;;;;;;;21.33;9.70;;;;;;;;;;5119137;28;20446;-74
2021/12/24 15:47:50;;;;;;;18.70;9.93;;;;;;;;;;5119456;28;20445;-73
2021/12/24 15:50:18;;;;;;;17.97;10.80;;;;;;;;;;5135266;28;20823;-74
2021/12/24 15:53:01;;;;;;;19.60;10.63;;;;;;;;;;5131557;28;20514;-75
2021/12/24 15:55:31;;;;;;;24.00;9.20;;;;;;;;;;5120921;28;20537;-74
2021/12/24 15:58:04;;;;;;;17.83;9.30;;;;;;;;;;5119537;28;20501;-74
2021/12/24 16:00:33;;;;;;;11.73;8.00;;;;;;;;;;5136023;27;20446;-73
2021/12/24 16:03:04;;;;;;;5.63;4.57;;;;;;;;;;5132960;27;20493;-73
2021/12/24 16:05:37;;;;;;;11.70;6.37;;;;;;;;;;5122780;27;20540;-74
2021/12/24 16:08:07;;;;;;;13.97;5.67;;;;;;;;;;5120168;28;21045;-73
2021/12/24 16:10:36;;;;;;;6.63;4.10;;;;;;;;;;5119658;27;20535;-74
2021/12/24 16:13:05;;;;;;;6.50;3.47;;;;;;;;;;5120936;27;20538;-74
2021/12/24 16:15:42;;;;;;;3.50;2.50;;;;;;;;;;5136720;27;20479;-74
2021/12/24 16:18:10;;;;;;;9.90;3.70;;;;;;;;;;5133217;27;20437;-74
2021/12/24 16:20:39;;;;;;;5.97;3.40;;;;;;;;;;5130799;27;20449;-71
2021/12/24 16:23:20;;;;;;;;;;;;;;;;;;;;;
2021/12/24 16:26:09;;;;;;;7.40;4.00;;;;;;;;;;5137923;27;20454;-74
2021/12/24 16:28:40;;;;;;;5.10;3.40;;;;;;;;;;5140052;27;20450;-73
2021/12/24 16:31:13;;;;;;;8.30;3.60;;;;;;;;;;5140899;27;20541;-74
2021/12/24 16:33:41;;;;;;;4.07;2.50;;;;;;;;;;5137788;27;20464;-74
2021/12/24 16:36:17;;;;;;;3.13;1.73;;;;;;;;;;5127986;27;20453;-73
2021/12/24 16:38:46;;;;;;;2.30;1.30;;;;;;;;;;5139658;27;20853;-73
2021/12/24 16:41:14;;;;;;;2.33;1.83;;;;;;;;;;5139604;27;20442;-73
2021/12/24 16:43:46;;;;;;;2.00;1.80;;;;;;;;;;5139864;27;20446;-74
2021/12/24 16:46:15;;;;;;;7.00;1.87;;;;;;;;;;5139095;27;20476;-73